Wetterdaten: Donnerstag, 01.11.2012
Datum Zeit Temperatur Luftfeuchte Regen Wind Richtung Richtung Taupunkt Windchill Windben
01.11.2012 00:03 1,5 C 97 % 0,0 l/m 0,5 km/h (0 Bft) N 360 1,1 C 1,3 C 1,8 km/h (1 Bft)
01.11.2012 00:08 1,7 C 97 % 0,0 l/m 1,0 km/h (0 Bft) N-NO 22 1,3 C 1,3 C 0,0 km/h (0 Bft)
01.11.2012 00:13 1,9 C 97 % 0,0 l/m 0,8 km/h (0 Bft) N 360 1,5 C 1,4 C 0,0 km/h (0 Bft)
01.11.2012 00:18 1,8 C 97 % 0,0 l/m 0,2 km/h (0 Bft) NO 45 1,4 C 1,5 C 0,0 km/h (0 Bft)
01.11.2012 00:23 1,9 C 97 % 0,0 l/m 0,3 km/h (0 Bft) NO 45 1,5 C 1,5 C 2,4 km/h (1 Bft)
01.11.2012 00:28 2,1 C 96 % 0,0 l/m 0,3 km/h (0 Bft) N 360 1,5 C 1,7 C 0,0 km/h (0 Bft)
01.11.2012 00:33 2,0 C 96 % 0,0 l/m 0,3 km/h (0 Bft) NW 315 1,4 C 1,7 C 0,0 km/h (0 Bft)
01.11.2012 00:38 1,6 C 97 % 0,0 l/m 0,3 km/h (0 Bft) N-NW 337 1,2 C 1,7 C 1,9 km/h (1 Bft)
01.11.2012 00:43 1,6 C 97 % 0,0 l/m 0,5 km/h (0 Bft) N 360 1,2 C 1,6 C 2,3 km/h (1 Bft)
01.11.2012 00:48 1,6 C 97 % 0,0 l/m 0,8 km/h (0 Bft) W-NW 292 1,2 C 1,6 C 2,1 km/h (1 Bft)
01.11.2012 00:53 1,5 C 97 % 0,0 l/m 1,1 km/h (1 Bft) W-NW 292 1,1 C 1,6 C 0,0 km/h (0 Bft)
01.11.2012 00:58 1,5 C 97 % 0,0 l/m 1,0 km/h (0 Bft) N-NW 337 1,1 C 1,4 C 2,4 km/h (1 Bft)
01.11.2012 01:03 1,5 C 97 % 0,0 l/m 0,5 km/h (0 Bft) W-NW 292 1,1 C 1,3 C 1,8 km/h (1 Bft)
01.11.2012 01:08 1,5 C 97 % 0,0 l/m 1,0 km/h (0 Bft) W-NW 292 1,1 C 1,4 C 2,9 km/h (1 Bft)
01.11.2012 01:13 1,5 C 97 % 0,0 l/m 1,0 km/h (0 Bft) NO 45 1,1 C 1,4 C 0,0 km/h (0 Bft)
01.11.2012 01:18 1,6 C 97 % 0,0 l/m 0,6 km/h (0 Bft) N-NW 337 1,2 C 1,5 C 1,8 km/h (1 Bft)
01.11.2012 01:23 1,5 C 97 % 0,0 l/m 0,5 km/h (0 Bft) S 180 1,1 C 1,4 C 2,9 km/h (1 Bft)
01.11.2012 01:28 1,3 C 97 % 0,0 l/m 0,6 km/h (0 Bft) N-NO 22 0,9 C 1,4 C 0,0 km/h (0 Bft)
01.11.2012 01:33 1,5 C 97 % 0,0 l/m 0,5 km/h (0 Bft) NO 45 1,1 C 1,4 C 0,0 km/h (0 Bft)
01.11.2012 01:38 1,5 C 97 % 0,0 l/m 0,0 km/h (0 Bft) N-NO 22 1,1 C 1,4 C 0,0 km/h (0 Bft)
01.11.2012 01:43 1,8 C 97 % 0,0 l/m 0,0 km/h (0 Bft) N-NW 337 1,4 C 1,6 C 0,0 km/h (0 Bft)
01.11.2012 01:48 1,5 C 97 % 0,0 l/m 0,0 km/h (0 Bft) NW 315 1,1 C 1,6 C 0,0 km/h (0 Bft)
01.11.2012 01:53 1,3 C 96 % 0,0 l/m 0,0 km/h (0 Bft) W-NW 292 0,7 C 1,5 C 0,0 km/h (0 Bft)
01.11.2012 01:58 1,2 C 96 % 0,0 l/m 0,0 km/h (0 Bft) W-SW 247 0,6 C 1,2 C 0,0 km/h (0 Bft)
01.11.2012 02:03 1,2 C 96 % 0,0 l/m 0,0 km/h (0 Bft) N-NW 337 0,6 C 1,1 C 0,0 km/h (0 Bft)
01.11.2012 02:08 1,2 C 96 % 0,0 l/m 0,0 km/h (0 Bft) N 360 0,6 C 1,1 C 0,0 km/h (0 Bft)
01.11.2012 02:13 1,3 C 97 % 0,0 l/m 0,0 km/h (0 Bft) NO 45 0,9 C 1,1 C 0,0 km/h (0 Bft)
01.11.2012 02:18 1,3 C 97 % 0,0 l/m 0,0 km/h (0 Bft) O 90 0,9 C 1,1 C 0,0 km/h (0 Bft)
01.11.2012 02:23 1,2 C 97 % 0,0 l/m 0,0 km/h (0 Bft) O-SO 112 0,8 C 1,1 C 0,0 km/h (0 Bft)
01.11.2012 02:28 1,2 C 97 % 0,0 l/m 0,2 km/h (0 Bft) W-SW 247 0,8 C 1,1 C 0,0 km/h (0 Bft)
01.11.2012 02:33 1,4 C 97 % 0,0 l/m 0,3 km/h (0 Bft) N-NW 337 1,0 C 1,2 C 2,1 km/h (1 Bft)
01.11.2012 02:38 2,4 C 96 % 0,0 l/m 0,5 km/h (0 Bft) W-SW 247 1,8 C 1,7 C 0,0 km/h (0 Bft)
01.11.2012 02:43 1,9 C 97 % 0,0 l/m 0,3 km/h (0 Bft) NW 315 1,5 C 1,8 C 0,0 km/h (0 Bft)
01.11.2012 02:48 1,6 C 97 % 0,0 l/m 0,0 km/h (0 Bft) W 270 1,2 C 1,7 C 0,0 km/h (0 Bft)
01.11.2012 02:53 1,5 C 96 % 0,0 l/m 0,0 km/h (0 Bft) N-NW 337 0,9 C 1,7 C 0,0 km/h (0 Bft)
01.11.2012 02:58 1,4 C 96 % 0,0 l/m 0,0 km/h (0 Bft) N-NO 22 0,8 C 1,6 C 0,0 km/h (0 Bft)
01.11.2012 03:03 1,4 C 96 % 0,0 l/m 0,0 km/h (0 Bft) W-NW 292 0,8 C 1,5 C 0,0 km/h (0 Bft)
01.11.2012 03:08 1,3 C 96 % 0,0 l/m 0,0 km/h (0 Bft) N-NW 337 0,7 C 1,4 C 0,0 km/h (0 Bft)
01.11.2012 03:13 1,2 C 96 % 0,0 l/m 0,0 km/h (0 Bft) N-NO 22 0,6 C 1,3 C 0,0 km/h (0 Bft)
01.11.2012 03:18 1,3 C 96 % 0,0 l/m 0,0 km/h (0 Bft) NO 45 0,7 C 1,3 C 0,0 km/h (0 Bft)
01.11.2012 03:23 1,2 C 96 % 0,0 l/m 0,0 km/h (0 Bft) S-SO 157 0,6 C 1,2 C 0,0 km/h (0 Bft)
01.11.2012 03:28 1,2 C 96 % 0,0 l/m 0,0 km/h (0 Bft) N-NO 22 0,6 C 1,2 C 0,0 km/h (0 Bft)
01.11.2012 03:33 1,5 C 97 % 0,0 l/m 0,0 km/h (0 Bft) N-NO 22 1,1 C 1,2 C 0,0 km/h (0 Bft)
01.11.2012 03:38 1,8 C 97 % 0,0 l/m 0,3 km/h (0 Bft) O-NO 67 1,4 C 1,5 C 0,0 km/h (0 Bft)
01.11.2012 03:43 1,9 C 97 % 0,0 l/m 0,8 km/h (0 Bft) N-NO 22 1,5 C 1,6 C 1,6 km/h (1 Bft)
01.11.2012 03:48 1,8 C 97 % 0,0 l/m 0,5 km/h (0 Bft) NO 45 1,4 C 1,8 C 0,0 km/h (0 Bft)
01.11.2012 03:53 1,7 C 97 % 0,0 l/m 0,8 km/h (0 Bft) O 90 1,3 C 1,8 C 0,0 km/h (0 Bft)
01.11.2012 03:58 1,6 C 97 % 0,0 l/m 0,6 km/h (0 Bft) NO 45 1,2 C 1,7 C 0,0 km/h (0 Bft)
01.11.2012 04:03 1,6 C 96 % 0,0 l/m 0,3 km/h (0 Bft) NO 45 1,0 C 1,6 C 0,0 km/h (0 Bft)
01.11.2012 04:08 1,8 C 97 % 0,0 l/m 0,5 km/h (0 Bft) N 360 1,4 C 1,7 C 0,0 km/h (0 Bft)
01.11.2012 04:13 1,7 C 97 % 0,0 l/m 0,3 km/h (0 Bft) O-SO 112 1,3 C 1,7 C 0,0 km/h (0 Bft)
01.11.2012 04:18 1,6 C 96 % 0,0 l/m 0,3 km/h (0 Bft) NO 45 1,0 C 1,7 C 0,0 km/h (0 Bft)
01.11.2012 04:23 1,8 C 96 % 0,0 l/m 1,0 km/h (0 Bft) O-NO 67 1,2 C 1,8 C 0,0 km/h (0 Bft)
01.11.2012 04:28 1,8 C 96 % 0,0 l/m 0,8 km/h (0 Bft) NW 315 1,2 C 1,8 C 0,0 km/h (0 Bft)
01.11.2012 04:33 1,8 C 96 % 0,0 l/m 0,3 km/h (0 Bft) N 360 1,2 C 1,8 C 1,6 km/h (1 Bft)
01.11.2012 04:38 1,9 C 97 % 0,0 l/m 0,3 km/h (0 Bft) NO 45 1,5 C 1,8 C 1,8 km/h (1 Bft)
01.11.2012 04:43 2,1 C 96 % 0,0 l/m 0,6 km/h (0 Bft) O-NO 67 1,5 C 1,9 C 1,8 km/h (1 Bft)
01.11.2012 04:48 1,9 C 96 % 0,0 l/m 2,4 km/h (1 Bft) O-SO 112 1,3 C 2,2 C 4,3 km/h (1 Bft)
01.11.2012 04:53 2,0 C 96 % 0,0 l/m 3,5 km/h (1 Bft) SO 135 1,4 C 1,9 C 7,1 km/h (2 Bft)
01.11.2012 04:58 2,2 C 96 % 0,0 l/m 5,1 km/h (1 Bft) SO 135 1,6 C 1,4 C 5,8 km/h (2 Bft)
01.11.2012 05:03 2,3 C 96 % 0,0 l/m 5,6 km/h (1 Bft) W-SW 247 1,7 C 1,4 C 4,3 km/h (1 Bft)
01.11.2012 05:08 2,3 C 96 % 0,0 l/m 5,0 km/h (1 Bft) O-SO 112 1,7 C 1,8 C 4,0 km/h (1 Bft)
01.11.2012 05:13 2,2 C 96 % 0,0 l/m 3,5 km/h (1 Bft) SO 135 1,6 C 2,5 C 4,8 km/h (1 Bft)
01.11.2012 05:18 2,4 C 96 % 0,0 l/m 2,7 km/h (1 Bft) O-SO 112 1,8 C 3,0 C 6,6 km/h (2 Bft)
01.11.2012 05:23 2,5 C 96 % 0,0 l/m 3,5 km/h (1 Bft) O-SO 112 1,9 C 2,5 C 3,5 km/h (1 Bft)
01.11.2012 05:28 2,5 C 96 % 0,0 l/m 3,4 km/h (1 Bft) O-SO 112 1,9 C 2,6 C 4,3 km/h (1 Bft)
01.11.2012 05:33 2,7 C 95 % 0,0 l/m 3,2 km/h (1 Bft) O-SO 112 2,0 C 2,8 C 5,0 km/h (1 Bft)
01.11.2012 05:38 2,4 C 95 % 0,0 l/m 3,7 km/h (1 Bft) SO 135 1,7 C 2,6 C 1,6 km/h (1 Bft)
01.11.2012 05:43 2,2 C 95 % 0,0 l/m 3,1 km/h (1 Bft) SO 135 1,5 C 2,8 C 2,4 km/h (1 Bft)
01.11.2012 05:48 2,1 C 95 % 0,0 l/m 0,8 km/h (0 Bft) N-NO 22 1,4 C 2,7 C 0,0 km/h (0 Bft)
01.11.2012 05:53 1,9 C 95 % 0,0 l/m 0,8 km/h (0 Bft) O-SO 112 1,2 C 2,6 C 4,8 km/h (1 Bft)
01.11.2012 05:58 2,0 C 95 % 0,0 l/m 0,5 km/h (0 Bft) O-SO 112 1,3 C 2,6 C 0,0 km/h (0 Bft)
01.11.2012 06:03 2,2 C 95 % 0,0 l/m 1,4 km/h (1 Bft) N-NW 337 1,5 C 2,6 C 4,0 km/h (1 Bft)
01.11.2012 06:08 2,5 C 95 % 0,0 l/m 2,7 km/h (1 Bft) O-SO 112 1,8 C 2,8 C 7,2 km/h (2 Bft)
01.11.2012 06:13 2,7 C 95 % 0,0 l/m 2,9 km/h (1 Bft) O 90 2,0 C 3,0 C 4,8 km/h (1 Bft)
01.11.2012 06:18 2,4 C 95 % 0,0 l/m 2,3 km/h (1 Bft) S-SO 157 1,7 C 3,1 C 1,8 km/h (1 Bft)
01.11.2012 06:23 2,4 C 94 % 0,0 l/m 1,0 km/h (0 Bft) NO 45 1,5 C 3,0 C 2,7 km/h (1 Bft)
01.11.2012 06:28 2,5 C 94 % 0,0 l/m 0,6 km/h (0 Bft) N-NW 337 1,6 C 3,0 C 0,0 km/h (0 Bft)
01.11.2012 06:33 2,4 C 94 % 0,0 l/m 0,6 km/h (0 Bft) N-NO 22 1,5 C 3,0 C 0,0 km/h (0 Bft)
01.11.2012 06:38 2,9 C 94 % 0,0 l/m 1,8 km/h (1 Bft) O-SO 112 2,0 C 3,3 C 5,8 km/h (2 Bft)
01.11.2012 06:43 3,2 C 92 % 0,0 l/m 2,7 km/h (1 Bft) O-SO 112 2,0 C 3,6 C 6,1 km/h (2 Bft)
01.11.2012 06:48 3,4 C 90 % 0,0 l/m 3,5 km/h (1 Bft) SO 135 1,9 C 3,5 C 10,6 km/h (2 Bft)
01.11.2012 06:53 3,5 C 89 % 0,0 l/m 4,3 km/h (1 Bft) S-SO 157 1,9 C 3,4 C 4,2 km/h (1 Bft)
01.11.2012 06:58 3,5 C 89 % 0,0 l/m 4,0 km/h (1 Bft) N-NO 22 1,9 C 3,7 C 0,0 km/h (0 Bft)
01.11.2012 07:03 3,8 C 87 % 0,0 l/m 2,9 km/h (1 Bft) NO 45 1,8 C 4,3 C 5,8 km/h (2 Bft)
01.11.2012 07:08 3,9 C 86 % 0,0 l/m 2,4 km/h (1 Bft) S-SO 157 1,8 C 4,3 C 2,1 km/h (1 Bft)
01.11.2012 07:13 3,8 C 85 % 0,0 l/m 2,4 km/h (1 Bft) NO 45 1,5 C 4,3 C 2,4 km/h (1 Bft)
01.11.2012 07:18 3,9 C 85 % 0,0 l/m 2,3 km/h (1 Bft) SO 135 1,6 C 4,3 C 5,1 km/h (1 Bft)
01.11.2012 07:23 3,7 C 86 % 0,0 l/m 2,1 km/h (1 Bft) O-NO 67 1,6 C 4,4 C 0,0 km/h (0 Bft)
01.11.2012 07:28 3,5 C 87 % 0,0 l/m 1,1 km/h (1 Bft) N-NO 22 1,5 C 4,4 C 0,0 km/h (0 Bft)
01.11.2012 07:33 3,7 C 87 % 0,0 l/m 0,8 km/h (0 Bft) N 360 1,7 C 4,3 C 2,4 km/h (1 Bft)
01.11.2012 07:38 3,7 C 88 % 0,0 l/m 0,5 km/h (0 Bft) N-NO 22 1,9 C 4,2 C 0,0 km/h (0 Bft)
01.11.2012 07:43 3,6 C 88 % 0,0 l/m 0,6 km/h (0 Bft) O-SO 112 1,8 C 4,1 C 2,7 km/h (1 Bft)
01.11.2012 07:48 3,2 C 87 % 0,0 l/m 0,8 km/h (0 Bft) O-SO 112 1,2 C 4,2 C 0,0 km/h (0 Bft)
01.11.2012 07:53 3,0 C 87 % 0,0 l/m 0,8 km/h (0 Bft) N-NO 22 1,1 C 4,0 C 0,0 km/h (0 Bft)
01.11.2012 07:58 2,8 C 88 % 0,0 l/m 0,2 km/h (0 Bft) N-NW 337 1,0 C 3,6 C 0,0 km/h (0 Bft)
01.11.2012 08:03 2,8 C 89 % 0,0 l/m 0,0 km/h (0 Bft) NW 315 1,2 C 3,6 C 0,0 km/h (0 Bft)
01.11.2012 08:08 2,8 C 89 % 0,0 l/m 0,0 km/h (0 Bft) N-NW 337 1,2 C 3,5 C 0,0 km/h (0 Bft)
01.11.2012 08:13 2,9 C 90 % 0,0 l/m 0,0 km/h (0 Bft) W-NW 292 1,4 C 3,4 C 0,0 km/h (0 Bft)
01.11.2012 08:18 3,0 C 89 % 0,0 l/m 0,0 km/h (0 Bft) N-NW 337 1,4 C 3,5 C 0,0 km/h (0 Bft)
01.11.2012 08:23 2,9 C 90 % 0,0 l/m 0,0 km/h (0 Bft) S-SO 157 1,4 C 3,6 C 0,0 km/h (0 Bft)
01.11.2012 08:28 3,3 C 89 % 0,0 l/m 0,0 km/h (0 Bft) O-SO 112 1,7 C 3,9 C 0,0 km/h (0 Bft)
01.11.2012 08:33 4,0 C 89 % 0,0 l/m 1,3 km/h (1 Bft) O-SO 112 2,4 C 4,3 C 4,3 km/h (1 Bft)
01.11.2012 08:38 4,4 C 88 % 0,0 l/m 3,4 km/h (1 Bft) O-SO 112 2,6 C 4,9 C 4,3 km/h (1 Bft)
01.11.2012 08:43 4,5 C 87 % 0,0 l/m 3,9 km/h (1 Bft) NO 45 2,5 C 4,8 C 5,6 km/h (1 Bft)
01.11.2012 08:48 4,8 C 82 % 0,0 l/m 4,2 km/h (1 Bft) O-SO 112 2,0 C 5,0 C 10,0 km/h (2 Bft)
01.11.2012 08:53 4,9 C 80 % 0,0 l/m 4,8 km/h (1 Bft) O-SO 112 1,7 C 4,7 C 5,6 km/h (1 Bft)
01.11.2012 08:58 5,1 C 79 % 0,0 l/m 5,0 km/h (1 Bft) O-NO 67 1,8 C 4,9 C 11,1 km/h (2 Bft)
01.11.2012 09:03 5,2 C 78 % 0,0 l/m 5,3 km/h (1 Bft) O 90 1,7 C 4,9 C 6,8 km/h (2 Bft)
01.11.2012 09:08 5,5 C 78 % 0,0 l/m 6,0 km/h (2 Bft) O-SO 112 2,0 C 5,0 C 9,3 km/h (2 Bft)
01.11.2012 09:13 5,5 C 77 % 0,0 l/m 5,5 km/h (1 Bft) N-NO 22 1,8 C 5,3 C 7,6 km/h (2 Bft)
01.11.2012 09:18 5,6 C 76 % 0,0 l/m 4,8 km/h (1 Bft) O 90 1,7 C 5,7 C 6,3 km/h (2 Bft)
01.11.2012 09:23 5,7 C 77 % 0,0 l/m 4,5 km/h (1 Bft) O-SO 112 2,0 C 5,9 C 6,6 km/h (2 Bft)
01.11.2012 09:28 5,6 C 77 % 0,0 l/m 4,8 km/h (1 Bft) SO 135 1,9 C 5,7 C 4,2 km/h (1 Bft)
01.11.2012 09:33 5,8 C 77 % 0,0 l/m 3,7 km/h (1 Bft) NO 45 2,1 C 6,3 C 0,0 km/h (0 Bft)
01.11.2012 09:38 5,9 C 79 % 0,0 l/m 2,3 km/h (1 Bft) O-SO 112 2,5 C 6,9 C 2,6 km/h (1 Bft)
01.11.2012 09:43 6,0 C 78 % 0,0 l/m 2,1 km/h (1 Bft) O-SO 112 2,5 C 7,0 C 0,0 km/h (0 Bft)
01.11.2012 09:48 6,0 C 76 % 0,0 l/m 1,3 km/h (1 Bft) O-SO 112 2,1 C 7,3 C 3,9 km/h (1 Bft)
01.11.2012 09:53 6,1 C 76 % 0,0 l/m 0,8 km/h (0 Bft) O-SO 112 2,2 C 7,3 C 2,4 km/h (1 Bft)
01.11.2012 09:58 6,0 C 76 % 0,0 l/m 1,0 km/h (0 Bft) O 90 2,1 C 7,3 C 0,0 km/h (0 Bft)
01.11.2012 10:03 5,9 C 77 % 0,0 l/m 0,6 km/h (0 Bft) O 90 2,2 C 7,3 C 0,0 km/h (0 Bft)
01.11.2012 10:08 6,1 C 77 % 0,0 l/m 0,2 km/h (0 Bft) NO 45 2,4 C 7,4 C 0,0 km/h (0 Bft)
01.11.2012 10:13 6,3 C 77 % 0,0 l/m 0,2 km/h (0 Bft) O-SO 112 2,6 C 7,6 C 0,0 km/h (0 Bft)
01.11.2012 10:18 6,2 C 76 % 0,0 l/m 0,8 km/h (0 Bft) SO 135 2,3 C 7,6 C 0,0 km/h (0 Bft)
01.11.2012 10:23 6,2 C 77 % 0,0 l/m 0,8 km/h (0 Bft) SO 135 2,5 C 7,6 C 1,6 km/h (1 Bft)
01.11.2012 10:28 6,2 C 77 % 0,0 l/m 0,0 km/h (0 Bft) O 90 2,5 C 7,8 C 0,0 km/h (0 Bft)
01.11.2012 10:33 6,1 C 76 % 0,0 l/m 0,0 km/h (0 Bft) O 90 2,2 C 8,0 C 0,0 km/h (0 Bft)
01.11.2012 10:38 6,6 C 75 % 0,0 l/m 0,0 km/h (0 Bft) N-NO 22 2,5 C 8,1 C 0,0 km/h (0 Bft)
01.11.2012 10:43 6,9 C 76 % 0,0 l/m 0,0 km/h (0 Bft) O-SO 112 3,0 C 8,4 C 0,0 km/h (0 Bft)
01.11.2012 10:48 7,2 C 75 % 0,0 l/m 0,0 km/h (0 Bft) SO 135 3,1 C 8,9 C 2,1 km/h (1 Bft)
01.11.2012 10:53 7,5 C 73 % 0,0 l/m 0,2 km/h (0 Bft) NO 45 3,0 C 9,1 C 0,0 km/h (0 Bft)
01.11.2012 10:58 8,1 C 74 % 0,0 l/m 0,2 km/h (0 Bft) SO 135 3,8 C 9,8 C 0,0 km/h (0 Bft)
01.11.2012 11:03 7,9 C 72 % 0,0 l/m 0,2 km/h (0 Bft) N-NO 22 3,2 C 9,9 C 0,0 km/h (0 Bft)
01.11.2012 11:08 7,4 C 72 % 0,0 l/m 0,2 km/h (0 Bft) O-SO 112 2,7 C 9,9 C 0,0 km/h (0 Bft)
01.11.2012 11:13 7,4 C 73 % 0,0 l/m 0,0 km/h (0 Bft) N 360 2,9 C 9,8 C 0,0 km/h (0 Bft)
01.11.2012 11:18 7,9 C 72 % 0,0 l/m 0,2 km/h (0 Bft) S 180 3,2 C 10,0 C 0,0 km/h (0 Bft)
01.11.2012 11:23 7,9 C 71 % 0,0 l/m 0,2 km/h (0 Bft) NO 45 3,0 C 10,1 C 0,0 km/h (0 Bft)
01.11.2012 11:28 8,2 C 68 % 0,0 l/m 0,0 km/h (0 Bft) S 180 2,7 C 10,4 C 2,1 km/h (1 Bft)
01.11.2012 11:33 8,5 C 69 % 0,0 l/m 0,0 km/h (0 Bft) SO 135 3,1 C 10,7 C 0,0 km/h (0 Bft)
01.11.2012 11:38 9,3 C 69 % 0,0 l/m 0,0 km/h (0 Bft) SW 225 3,9 C 11,8 C 0,0 km/h (0 Bft)
01.11.2012 11:43 9,6 C 69 % 0,0 l/m 0,0 km/h (0 Bft) S 180 4,2 C 12,4 C 0,0 km/h (0 Bft)
01.11.2012 11:48 9,7 C 67 % 0,0 l/m 0,5 km/h (0 Bft) S 180 3,9 C 13,1 C 2,6 km/h (1 Bft)
01.11.2012 11:53 9,9 C 68 % 0,0 l/m 0,8 km/h (0 Bft) W-SW 247 4,3 C 13,0 C 0,0 km/h (0 Bft)
01.11.2012 11:58 9,6 C 66 % 0,0 l/m 0,6 km/h (0 Bft) S 180 3,6 C 13,9 C 0,0 km/h (0 Bft)
01.11.2012 12:03 9,7 C 66 % 0,0 l/m 0,2 km/h (0 Bft) S 180 3,7 C 13,9 C 1,8 km/h (1 Bft)
01.11.2012 12:08 9,6 C 66 % 0,0 l/m 0,3 km/h (0 Bft) S 180 3,6 C 13,1 C 2,1 km/h (1 Bft)
01.11.2012 12:13 9,5 C 66 % 0,0 l/m 0,3 km/h (0 Bft) S 180 3,5 C 12,5 C 1,6 km/h (1 Bft)
01.11.2012 12:18 9,4 C 66 % 0,0 l/m 0,3 km/h (0 Bft) S-SO 157 3,4 C 12,1 C 0,0 km/h (0 Bft)
01.11.2012 12:23 9,5 C 65 % 0,0 l/m 0,0 km/h (0 Bft) W-NW 292 3,3 C 12,1 C 0,0 km/h (0 Bft)
01.11.2012 12:28 9,0 C 62 % 0,0 l/m 0,2 km/h (0 Bft) W-NW 292 2,1 C 11,5 C 0,0 km/h (0 Bft)
01.11.2012 12:33 8,7 C 63 % 0,0 l/m 0,3 km/h (0 Bft) W 270 2,1 C 11,3 C 0,0 km/h (0 Bft)
01.11.2012 12:38 9,2 C 64 % 0,0 l/m 0,3 km/h (0 Bft) W-NW 292 2,8 C 11,1 C 0,0 km/h (0 Bft)
01.11.2012 12:43 8,8 C 62 % 0,0 l/m 0,8 km/h (0 Bft) W-NW 292 1,9 C 10,9 C 4,0 km/h (1 Bft)
01.11.2012 12:48 8,4 C 61 % 0,0 l/m 1,9 km/h (1 Bft) NW 315 1,3 C 10,4 C 0,0 km/h (0 Bft)
01.11.2012 12:53 8,4 C 64 % 0,0 l/m 2,4 km/h (1 Bft) W 270 2,0 C 10,2 C 1,6 km/h (1 Bft)
01.11.2012 12:58 8,5 C 65 % 0,0 l/m 1,4 km/h (1 Bft) W-NW 292 2,3 C 10,1 C 1,9 km/h (1 Bft)
01.11.2012 13:03 8,6 C 65 % 0,0 l/m 1,0 km/h (0 Bft) W-NW 292 2,4 C 10,1 C 1,9 km/h (1 Bft)
01.11.2012 13:08 8,5 C 65 % 0,0 l/m 1,1 km/h (1 Bft) NW 315 2,3 C 10,0 C 0,0 km/h (0 Bft)
01.11.2012 13:13 8,4 C 67 % 0,0 l/m 1,1 km/h (1 Bft) W 270 2,6 C 9,8 C 2,4 km/h (1 Bft)
01.11.2012 13:18 8,4 C 67 % 0,0 l/m 0,5 km/h (0 Bft) NO 45 2,6 C 9,7 C 0,0 km/h (0 Bft)
01.11.2012 13:23 8,0 C 64 % 0,0 l/m 0,5 km/h (0 Bft) N-NW 337 1,6 C 9,8 C 0,0 km/h (0 Bft)
01.11.2012 13:28 8,1 C 65 % 0,0 l/m 0,5 km/h (0 Bft) W-SW 247 1,9 C 10,2 C 0,0 km/h (0 Bft)
01.11.2012 13:33 7,8 C 66 % 0,0 l/m 0,6 km/h (0 Bft) W 270 1,9 C 10,0 C 2,4 km/h (1 Bft)
01.11.2012 13:38 7,5 C 66 % 0,0 l/m 1,0 km/h (0 Bft) S 180 1,6 C 9,6 C 0,0 km/h (0 Bft)
01.11.2012 13:43 7,3 C 67 % 0,0 l/m 1,0 km/h (0 Bft) NW 315 1,6 C 9,4 C 2,1 km/h (1 Bft)
01.11.2012 13:48 7,2 C 68 % 0,0 l/m 1,0 km/h (0 Bft) W 270 1,7 C 9,0 C 1,6 km/h (1 Bft)
01.11.2012 13:53 7,2 C 69 % 0,0 l/m 0,8 km/h (0 Bft) N-NW 337 1,9 C 8,9 C 0,0 km/h (0 Bft)
01.11.2012 13:58 7,1 C 70 % 0,0 l/m 0,2 km/h (0 Bft) W-SW 247 2,0 C 8,5 C 0,0 km/h (0 Bft)
01.11.2012 14:03 7,1 C 70 % 0,0 l/m 0,3 km/h (0 Bft) S 180 2,0 C 8,4 C 0,0 km/h (0 Bft)
01.11.2012 14:08 7,2 C 70 % 0,0 l/m 1,0 km/h (0 Bft) SO 135 2,1 C 8,5 C 1,6 km/h (1 Bft)
01.11.2012 14:13 6,9 C 70 % 0,0 l/m 0,8 km/h (0 Bft) O 90 1,8 C 8,4 C 0,0 km/h (0 Bft)
01.11.2012 14:18 6,8 C 71 % 0,0 l/m 0,2 km/h (0 Bft) W-NW 292 1,9 C 8,3 C 0,0 km/h (0 Bft)
01.11.2012 14:23 6,8 C 71 % 0,0 l/m 0,0 km/h (0 Bft) S 180 1,9 C 10,0 C 0,0 km/h (0 Bft)
01.11.2012 14:28 6,8 C 72 % 0,0 l/m 0,5 km/h (0 Bft) SO 135 2,1 C 11,8 C 2,7 km/h (1 Bft)
01.11.2012 14:33 6,8 C 72 % 0,0 l/m 1,3 km/h (1 Bft) SO 135 2,1 C 10,9 C 2,1 km/h (1 Bft)
01.11.2012 14:38 7,0 C 72 % 0,0 l/m 1,1 km/h (1 Bft) NO 45 2,3 C 10,0 C 0,0 km/h (0 Bft)
01.11.2012 14:43 6,9 C 72 % 0,0 l/m 0,6 km/h (0 Bft) N-NO 22 2,2 C 9,8 C 1,8 km/h (1 Bft)
01.11.2012 14:48 7,2 C 72 % 0,0 l/m 1,1 km/h (1 Bft) N-NO 22 2,5 C 9,4 C 1,8 km/h (1 Bft)
01.11.2012 14:53 7,2 C 72 % 0,0 l/m 0,8 km/h (0 Bft) N-NO 22 2,5 C 9,1 C 0,0 km/h (0 Bft)
01.11.2012 14:58 6,8 C 72 % 0,0 l/m 0,3 km/h (0 Bft) SO 135 2,1 C 8,5 C 0,0 km/h (0 Bft)
01.11.2012 15:03 6,6 C 72 % 0,0 l/m 0,3 km/h (0 Bft) O-NO 67 1,9 C 8,2 C 0,0 km/h (0 Bft)
01.11.2012 15:08 7,0 C 72 % 0,0 l/m 0,5 km/h (0 Bft) N-NO 22 2,3 C 7,9 C 0,0 km/h (0 Bft)
01.11.2012 15:13 7,1 C 72 % 0,0 l/m 0,5 km/h (0 Bft) N 360 2,4 C 8,1 C 2,4 km/h (1 Bft)
01.11.2012 15:18 7,1 C 72 % 0,0 l/m 0,8 km/h (0 Bft) N-NO 22 2,4 C 8,2 C 0,0 km/h (0 Bft)
01.11.2012 15:23 7,0 C 72 % 0,0 l/m 0,8 km/h (0 Bft) NO 45 2,3 C 8,1 C 0,0 km/h (0 Bft)
01.11.2012 15:28 7,1 C 72 % 0,0 l/m 0,6 km/h (0 Bft) N-NO 22 2,4 C 7,9 C 2,9 km/h (1 Bft)
01.11.2012 15:33 7,2 C 72 % 0,0 l/m 1,1 km/h (1 Bft) N-NO 22 2,5 C 7,8 C 2,6 km/h (1 Bft)
01.11.2012 15:38 6,9 C 72 % 0,0 l/m 1,1 km/h (1 Bft) N 360 2,2 C 7,5 C 1,9 km/h (1 Bft)
01.11.2012 15:43 6,9 C 73 % 0,0 l/m 0,6 km/h (0 Bft) N 360 2,4 C 7,3 C 0,0 km/h (0 Bft)
01.11.2012 15:48 6,9 C 74 % 0,0 l/m 0,3 km/h (0 Bft) NO 45 2,6 C 7,1 C 0,0 km/h (0 Bft)
01.11.2012 15:53 6,9 C 74 % 0,0 l/m 0,2 km/h (0 Bft) N-NO 22 2,6 C 7,0 C 0,0 km/h (0 Bft)
01.11.2012 15:58 7,1 C 74 % 0,0 l/m 0,5 km/h (0 Bft) NO 45 2,8 C 7,0 C 4,5 km/h (1 Bft)
01.11.2012 16:03 6,9 C 75 % 0,0 l/m 0,6 km/h (0 Bft) N-NO 22 2,8 C 7,0 C 0,0 km/h (0 Bft)
01.11.2012 16:08 6,8 C 76 % 0,0 l/m 0,8 km/h (0 Bft) NO 45 2,9 C 6,8 C 0,0 km/h (0 Bft)
01.11.2012 16:13 6,7 C 76 % 0,0 l/m 0,5 km/h (0 Bft) N-NO 22 2,8 C 6,7 C 1,8 km/h (1 Bft)
01.11.2012 16:18 6,6 C 75 % 0,0 l/m 0,3 km/h (0 Bft) N-NO 22 2,5 C 6,4 C 0,0 km/h (0 Bft)
01.11.2012 16:23 6,6 C 75 % 0,0 l/m 0,2 km/h (0 Bft) N-NO 22 2,5 C 6,4 C 0,0 km/h (0 Bft)
01.11.2012 16:28 6,3 C 76 % 0,0 l/m 0,0 km/h (0 Bft) NO 45 2,4 C 6,1 C 0,0 km/h (0 Bft)
01.11.2012 16:33 6,2 C 76 % 0,0 l/m 0,0 km/h (0 Bft) NO 45 2,3 C 6,0 C 0,0 km/h (0 Bft)
01.11.2012 16:38 5,3 C 77 % 0,0 l/m 0,0 km/h (0 Bft) NO 45 1,6 C 5,4 C 0,0 km/h (0 Bft)
01.11.2012 16:43 5,4 C 78 % 0,0 l/m 0,0 km/h (0 Bft) N 360 1,9 C 5,0 C 0,0 km/h (0 Bft)
01.11.2012 16:48 5,5 C 79 % 0,0 l/m 0,2 km/h (0 Bft) NO 45 2,2 C 4,5 C 1,8 km/h (1 Bft)
01.11.2012 16:53 5,3 C 79 % 0,0 l/m 0,3 km/h (0 Bft) NO 45 2,0 C 4,3 C 2,7 km/h (1 Bft)
01.11.2012 16:58 4,2 C 79 % 0,0 l/m 0,2 km/h (0 Bft) S-SW 202 0,9 C 3,7 C 0,0 km/h (0 Bft)
01.11.2012 17:03 3,7 C 80 % 0,0 l/m 0,0 km/h (0 Bft) N-NO 22 0,6 C 3,2 C 0,0 km/h (0 Bft)
01.11.2012 17:08 4,4 C 82 % 0,0 l/m 0,2 km/h (0 Bft) N-NW 337 1,6 C 3,1 C 0,0 km/h (0 Bft)
01.11.2012 17:13 4,7 C 83 % 0,0 l/m 0,5 km/h (0 Bft) N-NO 22 2,1 C 3,5 C 4,5 km/h (1 Bft)
01.11.2012 17:18 4,7 C 83 % 0,0 l/m 1,0 km/h (0 Bft) NO 45 2,1 C 4,0 C 0,0 km/h (0 Bft)
01.11.2012 17:23 4,5 C 82 % 0,0 l/m 0,6 km/h (0 Bft) N-NO 22 1,7 C 4,0 C 0,0 km/h (0 Bft)
01.11.2012 17:28 3,9 C 83 % 0,0 l/m 0,0 km/h (0 Bft) N 360 1,3 C 3,6 C 0,0 km/h (0 Bft)
01.11.2012 17:33 3,6 C 83 % 0,0 l/m 0,0 km/h (0 Bft) O-NO 67 1,0 C 3,3 C 0,0 km/h (0 Bft)
01.11.2012 17:38 3,7 C 83 % 0,0 l/m 0,0 km/h (0 Bft) O-SO 112 1,1 C 3,0 C 2,3 km/h (1 Bft)
01.11.2012 17:43 4,0 C 84 % 0,0 l/m 0,5 km/h (0 Bft) N-NO 22 1,5 C 3,1 C 1,8 km/h (1 Bft)
01.11.2012 17:48 4,1 C 85 % 0,0 l/m 1,6 km/h (1 Bft) N 360 1,8 C 3,6 C 4,3 km/h (1 Bft)
01.11.2012 17:53 4,1 C 84 % 0,0 l/m 1,4 km/h (1 Bft) N 360 1,6 C 3,9 C 0,0 km/h (0 Bft)
01.11.2012 17:58 4,1 C 84 % 0,0 l/m 0,8 km/h (0 Bft) N-NO 22 1,6 C 4,3 C 0,0 km/h (0 Bft)
01.11.2012 18:03 4,1 C 84 % 0,0 l/m 0,3 km/h (0 Bft) N 360 1,6 C 4,3 C 0,0 km/h (0 Bft)
01.11.2012 18:08 4,1 C 84 % 0,0 l/m 0,0 km/h (0 Bft) W-NW 292 1,6 C 4,5 C 0,0 km/h (0 Bft)
01.11.2012 18:13 4,0 C 84 % 0,0 l/m 0,0 km/h (0 Bft) N-NO 22 1,5 C 4,6 C 0,0 km/h (0 Bft)
01.11.2012 18:18 3,7 C 84 % 0,0 l/m 0,0 km/h (0 Bft) N 360 1,3 C 4,5 C 0,0 km/h (0 Bft)
01.11.2012 18:23 3,7 C 84 % 0,0 l/m 0,0 km/h (0 Bft) O-SO 112 1,3 C 4,3 C 0,0 km/h (0 Bft)
01.11.2012 18:28 3,4 C 84 % 0,0 l/m 0,6 km/h (0 Bft) N 360 1,0 C 4,0 C 3,7 km/h (1 Bft)
01.11.2012 18:33 3,6 C 85 % 0,0 l/m 1,4 km/h (1 Bft) N-NO 22 1,3 C 3,8 C 1,6 km/h (1 Bft)
01.11.2012 18:38 3,8 C 85 % 0,0 l/m 1,9 km/h (1 Bft) N-NO 22 1,5 C 3,7 C 2,4 km/h (1 Bft)
01.11.2012 18:43 3,8 C 85 % 0,0 l/m 1,3 km/h (1 Bft) N 360 1,5 C 3,9 C 0,0 km/h (0 Bft)
01.11.2012 18:48 3,8 C 85 % 0,0 l/m 1,0 km/h (0 Bft) O-SO 112 1,5 C 3,9 C 3,2 km/h (1 Bft)
01.11.2012 18:53 3,8 C 85 % 0,0 l/m 0,8 km/h (0 Bft) S-SW 202 1,5 C 4,1 C 0,0 km/h (0 Bft)
01.11.2012 18:58 3,1 C 85 % 0,0 l/m 0,3 km/h (0 Bft) W 270 0,8 C 3,6 C 0,0 km/h (0 Bft)
01.11.2012 19:03 3,0 C 85 % 0,0 l/m 0,2 km/h (0 Bft) N-NW 337 0,7 C 3,3 C 2,4 km/h (1 Bft)
01.11.2012 19:08 3,1 C 86 % 0,0 l/m 1,0 km/h (0 Bft) NO 45 1,0 C 3,0 C 0,0 km/h (0 Bft)
01.11.2012 19:13 3,0 C 86 % 0,0 l/m 1,0 km/h (0 Bft) O-SO 112 0,9 C 3,0 C 0,0 km/h (0 Bft)
01.11.2012 19:18 3,2 C 86 % 0,0 l/m 1,0 km/h (0 Bft) N-NO 22 1,1 C 3,0 C 1,6 km/h (1 Bft)
01.11.2012 19:23 3,0 C 86 % 0,0 l/m 1,1 km/h (1 Bft) N 360 0,9 C 2,9 C 0,0 km/h (0 Bft)
01.11.2012 19:28 3,1 C 86 % 0,0 l/m 0,3 km/h (0 Bft) N-NO 22 1,0 C 2,6 C 0,0 km/h (0 Bft)
01.11.2012 19:33 2,8 C 87 % 0,0 l/m 0,2 km/h (0 Bft) SO 135 0,9 C 2,5 C 0,0 km/h (0 Bft)
01.11.2012 19:38 2,3 C 86 % 0,0 l/m 0,2 km/h (0 Bft) NW 315 0,2 C 2,0 C 0,0 km/h (0 Bft)
01.11.2012 19:43 2,2 C 87 % 0,0 l/m 0,2 km/h (0 Bft) W-NW 292 0,3 C 1,8 C 0,0 km/h (0 Bft)
01.11.2012 19:48 1,7 C 87 % 0,0 l/m 0,0 km/h (0 Bft) W 270 -0,2 C 1,5 C 0,0 km/h (0 Bft)
01.11.2012 19:53 1,5 C 87 % 0,0 l/m 0,0 km/h (0 Bft) W-SW 247 -0,4 C 1,2 C 0,0 km/h (0 Bft)
01.11.2012 19:58 1,3 C 87 % 0,0 l/m 0,0 km/h (0 Bft) N-NW 337 -0,6 C 0,9 C 0,0 km/h (0 Bft)
01.11.2012 20:03 1,2 C 88 % 0,0 l/m 0,0 km/h (0 Bft) N-NW 337 -0,6 C 0,8 C 0,0 km/h (0 Bft)
01.11.2012 20:08 1,1 C 88 % 0,0 l/m 0,0 km/h (0 Bft) N-NW 337 -0,7 C 0,7 C 0,0 km/h (0 Bft)
01.11.2012 20:13 1,3 C 88 % 0,0 l/m 0,0 km/h (0 Bft) NW 315 -0,5 C 0,8 C 0,0 km/h (0 Bft)
01.11.2012 20:18 1,4 C 89 % 0,0 l/m 0,0 km/h (0 Bft) NO 45 -0,2 C 1,0 C 0,0 km/h (0 Bft)
01.11.2012 20:23 1,5 C 89 % 0,0 l/m 0,0 km/h (0 Bft) N-NO 22 -0,1 C 1,1 C 0,0 km/h (0 Bft)
01.11.2012 20:28 1,9 C 89 % 0,0 l/m 0,0 km/h (0 Bft) O-NO 67 0,3 C 1,3 C 0,0 km/h (0 Bft)
01.11.2012 20:33 2,2 C 90 % 0,0 l/m 0,0 km/h (0 Bft) N-NW 337 0,7 C 1,5 C 0,0 km/h (0 Bft)
01.11.2012 20:38 2,0 C 90 % 0,0 l/m 0,5 km/h (0 Bft) S-SO 157 0,5 C 1,8 C 3,9 km/h (1 Bft)
01.11.2012 20:43 2,1 C 91 % 0,0 l/m 1,1 km/h (1 Bft) SW 225 0,8 C 1,8 C 0,0 km/h (0 Bft)
01.11.2012 20:48 1,9 C 92 % 0,0 l/m 1,0 km/h (0 Bft) NW 315 0,7 C 1,6 C 0,0 km/h (0 Bft)
01.11.2012 20:53 1,5 C 91 % 0,0 l/m 0,0 km/h (0 Bft) W-NW 292 0,2 C 1,4 C 0,0 km/h (0 Bft)
01.11.2012 20:58 1,4 C 92 % 0,0 l/m 0,2 km/h (0 Bft) W-NW 292 0,2 C 1,1 C 0,0 km/h (0 Bft)
01.11.2012 21:03 1,3 C 92 % 0,0 l/m 0,2 km/h (0 Bft) SO 135 0,1 C 1,0 C 0,0 km/h (0 Bft)
01.11.2012 21:08 1,5 C 92 % 0,0 l/m 0,3 km/h (0 Bft) N-NW 337 0,3 C 0,9 C 1,9 km/h (1 Bft)
01.11.2012 21:13 1,6 C 92 % 0,0 l/m 0,6 km/h (0 Bft) S-SO 157 0,4 C 1,1 C 2,9 km/h (1 Bft)
01.11.2012 21:18 1,7 C 92 % 0,0 l/m 0,8 km/h (0 Bft) N 360 0,5 C 1,1 C 0,0 km/h (0 Bft)
01.11.2012 21:23 1,9 C 93 % 0,0 l/m 1,0 km/h (0 Bft) NW 315 0,9 C 1,2 C 2,7 km/h (1 Bft)
01.11.2012 21:28 1,8 C 93 % 0,0 l/m 0,8 km/h (0 Bft) N 360 0,8 C 1,3 C 0,0 km/h (0 Bft)
01.11.2012 21:33 1,8 C 93 % 0,0 l/m 0,6 km/h (0 Bft) SO 135 0,8 C 1,4 C 0,0 km/h (0 Bft)
01.11.2012 21:38 1,7 C 93 % 0,0 l/m 0,2 km/h (0 Bft) S-SW 202 0,7 C 1,3 C 0,0 km/h (0 Bft)
01.11.2012 21:43 1,5 C 92 % 0,0 l/m 0,2 km/h (0 Bft) N-NW 337 0,3 C 1,3 C 1,9 km/h (1 Bft)
01.11.2012 21:48 1,6 C 93 % 0,0 l/m 0,2 km/h (0 Bft) O-NO 67 0,6 C 1,3 C 0,0 km/h (0 Bft)
01.11.2012 21:53 1,7 C 93 % 0,0 l/m 0,5 km/h (0 Bft) S 180 0,7 C 1,4 C 0,0 km/h (0 Bft)
01.11.2012 21:58 1,6 C 93 % 0,0 l/m 0,8 km/h (0 Bft) W-SW 247 0,6 C 1,4 C 0,0 km/h (0 Bft)
01.11.2012 22:03 1,5 C 93 % 0,0 l/m 0,6 km/h (0 Bft) SO 135 0,5 C 1,3 C 1,8 km/h (1 Bft)
01.11.2012 22:08 1,4 C 93 % 0,0 l/m 0,5 km/h (0 Bft) O-NO 67 0,4 C 1,3 C 2,1 km/h (1 Bft)
01.11.2012 22:13 1,8 C 93 % 0,0 l/m 0,5 km/h (0 Bft) N 360 0,8 C 1,5 C 0,0 km/h (0 Bft)
01.11.2012 22:18 2,1 C 93 % 0,0 l/m 1,0 km/h (0 Bft) O-SO 112 1,1 C 1,8 C 0,0 km/h (0 Bft)
01.11.2012 22:23 2,2 C 93 % 0,0 l/m 1,1 km/h (1 Bft) N-NW 337 1,2 C 1,9 C 0,0 km/h (0 Bft)
01.11.2012 22:35 2,3 C 93 % 0,0 l/m 0,5 km/h (0 Bft) N 360 1,3 C 2,3 C 0,0 km/h (0 Bft)
01.11.2012 22:40 2,2 C 93 % 0,0 l/m 1,0 km/h (0 Bft) O-SO 112 1,2 C 2,3 C 2,9 km/h (1 Bft)
01.11.2012 22:45 2,2 C 93 % 0,0 l/m 0,5 km/h (0 Bft) W-SW 247 1,2 C 2,4 C 0,0 km/h (0 Bft)
01.11.2012 22:50 2,3 C 93 % 0,0 l/m 0,3 km/h (0 Bft) NO 45 1,3 C 2,5 C 3,9 km/h (1 Bft)
01.11.2012 22:55 2,3 C 93 % 0,0 l/m 0,3 km/h (0 Bft) N-NW 337 1,3 C 2,6 C 2,1 km/h (1 Bft)
01.11.2012 22:56 2,3 C 93 % 0,0 l/m 0,3 km/h (0 Bft) N-NW 337 1,3 C 2,6 C 2,1 km/h (1 Bft)
01.11.2012 23:00 2,5 C 93 % 0,0 l/m 1,3 km/h (1 Bft) S-SO 157 1,5 C 2,8 C 3,9 km/h (1 Bft)
01.11.2012 23:05 2,5 C 93 % 0,0 l/m 2,1 km/h (1 Bft) SO 135 1,5 C 2,7 C 3,7 km/h (1 Bft)
01.11.2012 23:10 2,5 C 93 % 0,0 l/m 2,4 km/h (1 Bft) SO 135 1,5 C 2,7 C 3,4 km/h (1 Bft)
01.11.2012 23:15 2,5 C 93 % 0,0 l/m 1,8 km/h (1 Bft) S-SW 202 1,5 C 2,8 C 2,6 km/h (1 Bft)
01.11.2012 23:20 2,2 C 93 % 0,0 l/m 0,5 km/h (0 Bft) N-NO 22 1,2 C 2,7 C 0,0 km/h (0 Bft)
01.11.2012 23:25 2,2 C 92 % 0,0 l/m 0,2 km/h (0 Bft) N-NO 22 1,0 C 2,5 C 0,0 km/h (0 Bft)
01.11.2012 23:30 2,5 C 92 % 0,0 l/m 0,2 km/h (0 Bft) NO 45 1,3 C 2,3 C 0,0 km/h (0 Bft)
01.11.2012 23:35 2,3 C 92 % 0,0 l/m 0,2 km/h (0 Bft) O-SO 112 1,1 C 2,4 C 0,0 km/h (0 Bft)
01.11.2012 23:40 2,3 C 92 % 0,0 l/m 0,0 km/h (0 Bft) NO 45 1,1 C 2,3 C 0,0 km/h (0 Bft)
01.11.2012 23:45 2,6 C 92 % 0,0 l/m 0,0 km/h (0 Bft) N-NO 22 1,4 C 2,4 C 0,0 km/h (0 Bft)
01.11.2012 23:50 2,5 C 92 % 0,0 l/m 0,3 km/h (0 Bft) O-SO 112 1,3 C 2,5 C 0,0 km/h (0 Bft)
01.11.2012 23:55 2,3 C 92 % 0,0 l/m 0,3 km/h (0 Bft) S-SW 202 1,1 C 2,5 C 0,0 km/h (0 Bft)
_ Min-Zeit 20:08 12:48 - 23:45 - - 20:08 20:08 23:55
Minimum _ 1,1 C 61 % - 0,0 km/h (0 Bft) - - -0,7 C 0,7 C 0,0 km/h (0 Bft)
_ Max-Zeit 11:53 04:38 23:55 09:08 - - 11:53 12:03 08:58
Maximum _ 9,9 C 97 % 0,0 l/m 6,0 km/h
O-SO (2 Bft)
- - 4,3 C 13,9 C 11,1 km/h
O-NO (2 Bft)
Durchschnitt _ 4,0 C 85 % #0,0 l/m 0,9 km/h (0 Bft) O-SO - 1,6 C 4,5 C 1,3 km/h (1 Bft)